Time;durP1;ratioP1;P1;durP2;ratioP2;P2;SDS_P1;SDS_P2;PMS_P1;PMS_P2;Temp;Humidity;BMP_temperature;BMP_pressure;BME280_temperature;BME280_humidity;BME280_pressure;Samples;Min_cycle;Max_cycle;Signal;HPM_P1;HPM_P2
2021/06/30 00:00:16;;;;;;;9.00;6.22;;;;;;;30.35;37.89;98847.66;4523742;31;81152;-61
2021/06/30 00:03:04;;;;;;;8.75;6.00;;;;;;;30.68;37.41;98862.34;4525180;31;80525;-62
2021/06/30 00:05:50;;;;;;;11.43;6.00;;;;;;;30.34;37.79;98851.53;4525546;31;78101;-62
2021/06/30 00:08:36;;;;;;;12.05;7.10;;;;;;;30.66;37.02;98843.37;4502994;31;775864;-61
2021/06/30 00:11:26;;;;;;;12.52;6.30;;;;;;;30.66;36.91;98843.37;4525241;31;77903;-63
2021/06/30 00:14:13;;;;;;;10.02;5.85;;;;;;;30.65;36.96;98850.00;4525201;31;80173;-61
2021/06/30 00:16:59;;;;;;;10.07;6.15;;;;;;;30.65;36.92;98855.50;4525202;31;76011;-63
2021/06/30 00:19:47;;;;;;;10.02;6.05;;;;;;;30.63;36.87;98863.22;4525070;31;79246;-62
2021/06/30 00:22:32;;;;;;;9.57;5.93;;;;;;;30.63;37.05;98863.22;4490660;31;784837;-62
2021/06/30 00:25:20;;;;;;;10.02;6.03;;;;;;;30.61;37.06;98884.75;4502974;31;776436;-62
2021/06/30 00:28:07;;;;;;;9.80;5.57;;;;;;;30.61;37.48;98879.25;4525281;31;80977;-63
2021/06/30 00:30:52;;;;;;;17.23;6.12;;;;;;;30.59;37.33;98887.00;4502999;31;777504;-62
2021/06/30 00:33:40;;;;;;;13.07;5.70;;;;;;;30.61;37.25;98883.94;4523912;31;122651;-62
2021/06/30 00:36:25;;;;;;;13.68;5.30;;;;;;;30.59;37.15;98881.50;4502937;31;780941;-60
2021/06/30 00:39:15;;;;;;;8.15;5.00;;;;;;;30.59;36.98;98877.88;4525341;31;74178;-62
2021/06/30 00:42:00;;;;;;;12.07;5.65;;;;;;;30.21;37.43;98884.16;4525182;31;77152;-60
2021/06/30 00:44:47;;;;;;;16.33;5.22;;;;;;;30.55;37.34;98885.94;4524041;31;75501;-61
2021/06/30 00:47:33;;;;;;;13.18;5.05;;;;;;;30.54;37.51;98905.50;4502844;31;779945;-62
2021/06/30 00:50:20;;;;;;;17.70;5.10;;;;;;;30.55;37.45;98912.66;4525459;31;74032;-61
2021/06/30 00:53:05;;;;;;;18.02;5.00;;;;;;;30.50;37.59;98930.06;4503048;31;777458;-62
2021/06/30 00:55:53;;;;;;;13.35;4.85;;;;;;;30.48;37.70;98948.78;4525024;31;77722;-61
2021/06/30 00:58:40;;;;;;;11.25;4.25;;;;;;;30.47;37.83;98938.91;4525254;31;76680;-62
2021/06/30 01:01:28;;;;;;;18.62;4.53;;;;;;;30.44;37.80;98929.28;4525355;31;74456;-62
2021/06/30 01:04:15;;;;;;;16.60;4.37;;;;;;;30.06;38.21;98933.84;4525521;31;78232;-62
2021/06/30 01:07:00;;;;;;;16.75;4.18;;;;;;;30.36;37.84;98940.97;4503063;31;778036;-61
2021/06/30 01:09:48;;;;;;;18.75;4.32;;;;;;;29.98;38.31;98931.72;4525310;31;76821;-62
2021/06/30 01:12:33;;;;;;;19.30;3.75;;;;;;;30.32;37.81;98948.16;4502971;31;783407;-62
2021/06/30 01:15:21;;;;;;;12.07;2.97;;;;;;;29.94;38.23;98945.25;4525272;31;79885;-61
2021/06/30 01:18:06;;;;;;;17.33;3.33;;;;;;;30.30;37.63;98955.06;4502904;31;778387;-62
2021/06/30 01:20:52;;;;;;;9.98;2.65;;;;;;;30.26;37.86;98959.00;4501879;31;777574;-61
2021/06/30 01:23:38;;;;;;;14.52;3.25;;;;;;;30.26;37.42;98954.00;4503110;31;777651;-63
2021/06/30 01:26:22;;;;;;;13.80;2.50;;;;;;;30.24;37.36;98951.56;4502760;31;784104;-62
2021/06/30 01:29:08;;;;;;;14.80;3.42;;;;;;;30.09;37.64;98957.19;4528943;31;727929;-60
2021/06/30 01:31:53;;;;;;;12.80;2.97;;;;;;;30.20;37.71;98961.50;4502988;31;775554;-64
2021/06/30 01:34:41;;;;;;;21.90;2.95;;;;;;;30.22;37.19;98964.78;4492569;31;1130715;-61
2021/06/30 01:37:26;;;;;;;12.52;2.40;;;;;;;30.17;37.04;98967.56;4502700;31;790303;-63
2021/06/30 01:40:13;;;;;;;17.40;2.80;;;;;;;30.15;37.39;98964.31;4502892;31;778128;-62
2021/06/30 01:43:00;;;;;;;9.65;2.30;;;;;;;30.15;37.61;98967.88;4525274;31;76397;-62
2021/06/30 01:45:50;;;;;;;14.38;3.00;;;;;;;30.13;37.43;98977.53;4512581;31;77323;-60
2021/06/30 01:48:37;;;;;;;10.35;2.72;;;;;;;30.11;37.66;98972.28;4525017;31;81319;-60
2021/06/30 01:51:25;;;;;;;12.80;2.12;;;;;;;30.09;37.39;98974.53;4525245;31;76938;-63
2021/06/30 01:54:15;;;;;;;9.38;1.92;;;;;;;29.70;37.84;98971.84;4525344;31;79256;-60
2021/06/30 01:57:02;;;;;;;11.30;2.17;;;;;;;30.03;36.81;98961.09;4525178;31;74100;-62
2021/06/30 01:59:49;;;;;;;12.48;2.22;;;;;;;29.99;37.18;98971.87;4525410;31;77987;-62
2021/06/30 02:02:37;;;;;;;10.18;2.17;;;;;;;29.99;37.13;98964.44;4525138;31;83902;-61
2021/06/30 02:05:22;;;;;;;8.48;2.10;;;;;;;29.99;37.30;98958.13;4502593;31;783937;-62
2021/06/30 02:08:07;;;;;;;11.07;2.23;;;;;;;29.52;37.97;98961.53;4520430;31;719769;-61
2021/06/30 02:10:53;;;;;;;8.10;1.87;;;;;;;29.22;38.32;98964.22;4502766;31;780818;-66
2021/06/30 02:13:40;;;;;;;5.18;1.60;;;;;;;29.93;37.15;98973.03;4525054;31;83305;-60
2021/06/30 02:16:26;;;;;;;12.10;2.12;;;;;;;29.94;36.98;98972.75;4503110;31;776902;-61
2021/06/30 02:19:12;;;;;;;14.70;2.65;;;;;;;29.94;37.15;98969.19;4503071;31;776315;-62
2021/06/30 02:21:58;;;;;;;9.98;2.08;;;;;;;29.90;36.61;98973.63;4525197;31;78893;-61
2021/06/30 02:24:44;;;;;;;8.73;2.20;;;;;;;29.88;37.18;98979.37;4503038;31;778331;-61
2021/06/30 02:27:31;;;;;;;7.70;1.95;;;;;;;29.49;37.69;98972.00;4525090;31;82318;-62
2021/06/30 02:30:19;;;;;;;9.73;2.12;;;;;;;29.82;37.00;98971.50;4503009;31;780695;-60
2021/06/30 02:33:05;;;;;;;11.35;1.83;;;;;;;29.45;37.33;98970.94;4525432;31;78972;-62
2021/06/30 02:35:51;;;;;;;6.78;1.77;;;;;;;29.77;37.37;98975.09;4523651;31;127873;-61
2021/06/30 02:38:39;;;;;;;9.98;1.80;;;;;;;29.76;37.23;98991.91;4525179;31;79637;-64
2021/06/30 02:41:24;;;;;;;5.07;1.60;;;;;;;29.76;37.17;98992.72;4502657;31;784957;-60
2021/06/30 02:44:11;;;;;;;8.38;2.10;;;;;;;29.74;36.84;98986.66;4518610;31;80449;-64
2021/06/30 02:46:56;;;;;;;9.30;2.10;;;;;;;29.67;36.96;98995.25;4503048;31;779146;-65
2021/06/30 02:49:41;;;;;;;5.95;1.83;;;;;;;29.66;37.37;98996.38;4502909;31;776422;-62
2021/06/30 02:52:29;;;;;;;6.97;1.60;;;;;;;29.67;37.14;98980.69;4526508;31;27317;-62
2021/06/30 02:55:15;;;;;;;7.32;2.22;;;;;;;29.66;37.05;98992.81;4503103;31;779357;-62
2021/06/30 02:58:02;;;;;;;5.65;1.37;;;;;;;29.60;37.06;98988.44;4525151;31;76605;-61
2021/06/30 03:00:49;;;;;;;5.53;1.73;;;;;;;29.59;37.19;98989.56;4525243;31;76578;-62
2021/06/30 03:03:35;;;;;;;8.10;1.77;;;;;;;29.58;36.87;98976.94;4503075;31;777698;-62
2021/06/30 03:06:22;;;;;;;3.90;1.95;;;;;;;29.57;37.14;98970.59;4524957;31;78639;-63
2021/06/30 03:09:09;;;;;;;8.40;1.60;;;;;;;29.19;37.71;98967.56;4525309;31;82183;-61
2021/06/30 03:11:57;;;;;;;9.15;1.80;;;;;;;29.53;37.26;98975.00;4525106;31;77902;-60
2021/06/30 03:14:44;;;;;;;9.48;1.67;;;;;;;29.52;36.91;98973.38;4525397;31;77310;-61
2021/06/30 03:17:34;;;;;;;6.03;1.42;;;;;;;29.15;37.27;98971.16;4525310;31;35737;-61
2021/06/30 03:20:17;;;;;;;11.45;1.90;;;;;;;29.47;37.01;98982.47;4502864;31;780624;-63
2021/06/30 03:23:03;;;;;;;4.07;1.40;;;;;;;29.45;37.13;98973.69;4487304;31;783542;-62
2021/06/30 03:25:48;;;;;;;5.93;2.05;;;;;;;29.09;37.55;98975.84;4534993;31;718174;-61
2021/06/30 03:28:35;;;;;;;2.70;1.48;;;;;;;29.36;37.23;98980.88;4525018;31;81584;-62
2021/06/30 03:31:23;;;;;;;6.18;1.50;;;;;;;29.36;37.21;98991.06;4525426;31;77576;-61
2021/06/30 03:34:10;;;;;;;5.90;1.40;;;;;;;29.36;37.16;98988.31;4525168;31;77551;-61
2021/06/30 03:36:55;;;;;;;6.87;1.60;;;;;;;29.35;37.14;98990.25;4501579;31;824072;-62
2021/06/30 03:39:41;;;;;;;5.53;1.80;;;;;;;29.34;37.14;98988.63;4502944;31;781622;-62
2021/06/30 03:42:28;;;;;;;5.18;1.55;;;;;;;29.31;37.09;98985.59;4524658;31;91013;-62
2021/06/30 03:45:14;;;;;;;5.70;1.50;;;;;;;29.29;37.21;98977.66;4503114;31;778165;-60
2021/06/30 03:47:59;;;;;;;6.68;1.50;;;;;;;29.27;37.16;98981.78;4503195;31;775841;-61
2021/06/30 03:50:47;;;;;;;5.37;1.40;;;;;;;29.25;37.38;98978.50;4524930;31;81899;-63
2021/06/30 03:53:34;;;;;;;5.78;1.60;;;;;;;28.87;37.88;98984.47;4525325;31;77037;-63
2021/06/30 03:56:25;;;;;;;6.32;1.40;;;;;;;29.22;37.41;98980.72;4503116;31;778939;-62
2021/06/30 03:59:12;;;;;;;5.53;1.35;;;;;;;29.23;37.14;98984.28;4525077;31;80055;-62
2021/06/30 04:01:59;;;;;;;2.80;1.10;;;;;;;29.20;37.51;98977.44;4525181;31;77138;-60
2021/06/30 04:04:45;;;;;;;5.95;1.45;;;;;;;29.20;37.69;98976.62;4503038;31;780006;-63
2021/06/30 04:07:34;;;;;;;4.50;1.35;;;;;;;29.19;37.43;98988.69;4525130;31;77822;-61
2021/06/30 04:10:20;;;;;;;5.20;1.52;;;;;;;29.18;37.57;98979.63;4525973;31;29081;-61
2021/06/30 04:13:08;;;;;;;4.05;1.37;;;;;;;28.80;38.06;98983.12;4525405;31;79274;-62
2021/06/30 04:15:54;;;;;;;7.12;1.30;;;;;;;29.14;37.71;98978.56;4525192;31;75700;-62
2021/06/30 04:18:41;;;;;;;7.82;1.70;;;;;;;29.13;37.65;98985.16;4525517;31;73936;-62
2021/06/30 04:21:27;;;;;;;8.90;1.70;;;;;;;29.13;37.91;98987.09;4497804;31;785316;-63
2021/06/30 04:24:14;;;;;;;6.95;1.70;;;;;;;29.18;38.00;98987.87;4525221;31;76479;-63
2021/06/30 04:26:57;;;;;;;19.25;2.67;;;;;;;29.18;38.14;98985.13;4525179;31;80494;-61
2021/06/30 04:29:44;;;;;;;11.18;2.15;;;;;;;29.23;38.16;98979.59;4525196;31;76284;-65
2021/06/30 04:32:32;;;;;;;7.72;1.98;;;;;;;29.26;38.37;98989.22;4524793;31;90292;-65
2021/06/30 04:35:19;;;;;;;6.03;1.55;;;;;;;29.28;38.57;98978.75;4525257;31;77771;-62
2021/06/30 04:38:07;;;;;;;10.35;2.10;;;;;;;29.32;38.11;98970.75;4523598;31;124992;-64
2021/06/30 04:40:53;;;;;;;7.97;2.35;;;;;;;29.35;38.08;98967.44;4502852;31;783505;-62
2021/06/30 04:43:40;;;;;;;6.35;1.52;;;;;;;28.99;38.67;98964.94;4512169;31;76725;-61
2021/06/30 04:46:27;;;;;;;11.27;1.92;;;;;;;29.38;38.18;98978.69;4525087;31;77448;-62
2021/06/30 04:49:14;;;;;;;6.25;1.92;;;;;;;29.02;38.66;98975.34;4526617;31;33741;-61
2021/06/30 04:52:02;;;;;;;5.53;1.77;;;;;;;29.42;38.07;98977.00;4525199;31;77017;-63
2021/06/30 04:54:49;;;;;;;6.18;1.67;;;;;;;29.44;38.11;98976.72;4525060;31;77794;-64
2021/06/30 04:57:37;;;;;;;8.23;1.52;;;;;;;29.45;38.10;98981.91;4523849;31;119893;-61
2021/06/30 05:00:22;;;;;;;5.87;1.60;;;;;;;29.47;38.09;98976.12;4502762;31;785055;-65
2021/06/30 05:03:08;;;;;;;3.08;1.48;;;;;;;29.51;38.13;98979.13;4502824;31;780808;-64
2021/06/30 05:05:55;;;;;;;6.35;1.52;;;;;;;29.11;38.63;98970.91;4525034;31;79511;-62
2021/06/30 05:08:40;;;;;;;7.85;1.85;;;;;;;29.50;38.24;98967.31;4502946;31;778213;-61
2021/06/30 05:11:29;;;;;;;17.08;2.20;;;;;;;29.14;38.68;98969.50;4525473;31;75486;-62
2021/06/30 05:14:15;;;;;;;6.47;1.77;;;;;;;29.50;38.32;98972.81;4525271;31;81205;-62
2021/06/30 05:17:00;;;;;;;8.02;2.22;;;;;;;29.54;38.36;98970.31;4471176;31;1784232;-64
2021/06/30 05:19:46;;;;;;;7.10;1.70;;;;;;;29.54;38.25;98973.06;4534906;31;719544;-64
2021/06/30 05:22:34;;;;;;;9.35;3.92;;;;;;;29.56;38.30;98968.12;4526553;31;31677;-63
2021/06/30 05:25:20;;;;;;;9.18;2.05;;;;;;;29.59;38.32;98965.63;4477977;31;1571038;-64
2021/06/30 05:28:05;;;;;;;11.02;2.03;;;;;;;29.60;38.35;98972.75;4502922;31;776941;-61
2021/06/30 05:30:50;;;;;;;8.05;3.30;;;;;;;29.60;38.41;98961.75;4502949;31;777860;-65
2021/06/30 05:33:38;;;;;;;7.37;2.28;;;;;;;29.23;38.89;98965.88;4509619;31;33010;-66
2021/06/30 05:36:23;;;;;;;8.10;2.25;;;;;;;29.61;38.53;98970.84;4487095;31;776259;-67
2021/06/30 05:39:09;;;;;;;4.40;1.70;;;;;;;29.62;38.56;98972.50;4491671;31;821942;-68
2021/06/30 05:41:54;;;;;;;7.60;2.05;;;;;;;29.64;38.61;98986.75;4495800;31;779047;-67
2021/06/30 05:44:40;;;;;;;7.70;1.65;;;;;;;29.63;38.53;98982.09;4503000;31;778064;-67
2021/06/30 05:47:27;;;;;;;7.65;2.30;;;;;;;29.65;38.56;98982.91;4526206;31;32996;-64
2021/06/30 05:50:13;;;;;;;10.88;2.00;;;;;;;29.64;38.67;98982.09;4503012;31;777219;-66
2021/06/30 05:52:58;;;;;;;7.57;2.30;;;;;;;29.65;38.60;98991.97;4502800;31;786480;-67
2021/06/30 05:55:44;;;;;;;11.20;2.33;;;;;;;29.65;38.68;98994.72;4490880;31;781151;-68
2021/06/30 05:58:31;;;;;;;4.35;1.85;;;;;;;29.27;39.17;98992.78;4525046;31;84757;-66
2021/06/30 06:01:16;;;;;;;8.50;1.90;;;;;;;29.65;38.67;99002.97;4502677;31;783016;-67
2021/06/30 06:04:02;;;;;;;12.48;2.22;;;;;;;29.66;38.62;98998.31;4502941;31;776966;-68
2021/06/30 06:06:47;;;;;;;6.60;1.73;;;;;;;29.66;38.68;98996.38;4503095;31;775695;-67
2021/06/30 06:09:35;;;;;;;5.37;1.95;;;;;;;29.30;39.15;99003.22;4526561;31;24873;-65
2021/06/30 06:12:20;;;;;;;5.82;2.03;;;;;;;29.67;38.75;99011.75;4503093;31;775548;-68
2021/06/30 06:15:07;;;;;;;5.10;1.73;;;;;;;29.67;38.70;99014.50;4503050;31;775874;-67
2021/06/30 06:17:53;;;;;;;7.47;1.80;;;;;;;29.66;38.70;99015.63;4524862;31;87914;-67
2021/06/30 06:20:39;;;;;;;6.65;1.90;;;;;;;29.30;39.17;99005.97;4525273;31;78901;-68
2021/06/30 06:23:28;;;;;;;5.62;1.62;;;;;;;29.66;38.70;99023.06;4524905;31;80125;-67
2021/06/30 06:26:16;;;;;;;10.57;2.05;;;;;;;29.30;39.15;99026.00;4525114;31;83050;-67
2021/06/30 06:29:04;;;;;;;9.43;1.80;;;;;;;29.67;38.45;99031.00;4524960;31;82744;-65
2021/06/30 06:31:50;;;;;;;8.15;1.60;;;;;;;29.68;38.66;99027.13;4493808;31;1082944;-68
2021/06/30 06:34:35;;;;;;;10.88;1.65;;;;;;;29.69;38.77;99038.94;4502975;31;776033;-68
2021/06/30 06:37:23;;;;;;;7.57;2.03;;;;;;;29.69;38.72;99034.28;4525065;31;81829;-67
2021/06/30 06:40:09;;;;;;;8.30;1.73;;;;;;;29.70;38.75;99035.09;4501333;31;823928;-67
2021/06/30 06:42:56;;;;;;;9.13;1.40;;;;;;;29.71;38.71;99037.56;4524812;31;92234;-67
2021/06/30 06:45:41;;;;;;;6.60;1.58;;;;;;;29.73;38.73;99037.28;4502964;31;779472;-67
2021/06/30 06:48:27;;;;;;;4.05;1.77;;;;;;;29.73;38.67;99040.84;4502673;31;783027;-67
2021/06/30 06:51:14;;;;;;;10.88;1.92;;;;;;;29.73;38.66;99038.09;4525162;31;75568;-73
2021/06/30 06:54:02;;;;;;;4.75;1.50;;;;;;;29.78;38.59;99045.47;4525224;31;78808;-77
2021/06/30 06:56:49;;;;;;;7.43;1.60;;;;;;;29.78;38.62;99040.78;4525695;31;43723;-77
2021/06/30 06:59:34;;;;;;;6.00;1.67;;;;;;;29.82;38.62;99034.75;4486598;31;779651;-79
2021/06/30 07:02:25;;;;;;;7.28;2.00;;;;;;;29.82;38.63;99042.97;4525118;31;79075;-78
2021/06/30 07:05:07;;;;;;;8.52;2.00;;;;;;;29.38;39.67;99036.41;4522286;31;80997;-81
2021/06/30 07:07:54;;;;;;;8.48;1.87;;;;;;;29.78;38.71;99039.97;4512582;31;77455;-79
2021/06/30 07:10:40;;;;;;;5.47;2.00;;;;;;;29.87;38.55;99037.44;4503055;31;775650;-80
2021/06/30 07:13:25;;;;;;;8.13;1.60;;;;;;;29.50;39.04;99030.53;4488517;31;778122;-79
2021/06/30 07:16:13;;;;;;;6.18;1.92;;;;;;;29.90;38.57;99031.38;4525164;31;76425;-80
2021/06/30 07:18:58;;;;;;;5.97;1.45;;;;;;;29.93;38.55;99036.28;4502975;31;777040;-78
2021/06/30 07:21:44;;;;;;;8.15;1.87;;;;;;;29.94;38.57;99041.50;4503104;31;778823;-80
2021/06/30 07:24:29;;;;;;;9.57;1.35;;;;;;;29.95;38.63;99039.56;4502659;31;785954;-80
2021/06/30 07:27:15;;;;;;;5.30;1.60;;;;;;;29.95;38.68;99042.31;4534710;31;732631;-79
2021/06/30 07:30:00;;;;;;;10.50;1.50;;;;;;;29.97;38.68;99040.09;4472289;31;778212;-67
2021/06/30 07:32:45;;;;;;;5.87;1.45;;;;;;;29.99;38.63;99044.22;4487162;31;784286;-78
2021/06/30 07:35:31;;;;;;;5.50;1.60;;;;;;;30.02;38.62;99045.56;4495811;31;785140;-79
2021/06/30 07:38:16;;;;;;;4.78;1.80;;;;;;;30.06;38.69;99059.56;4481225;31;803987;-78
2021/06/30 07:41:04;;;;;;;5.95;1.48;;;;;;;30.08;38.74;99049.06;4512736;31;125327;-78
2021/06/30 07:43:49;;;;;;;3.30;1.40;;;;;;;30.07;38.75;99057.44;4502585;31;778035;-79
2021/06/30 07:46:32;;;;;;;6.18;1.83;;;;;;;30.08;38.84;99056.81;4524124;31;87255;-75
2021/06/30 07:49:13;;;;;;;5.03;1.40;;;;;;;30.09;38.89;99054.31;4525144;31;77307;-75
2021/06/30 07:51:55;;;;;;;6.87;2.12;;;;;;;29.73;39.34;99051.03;4525004;31;75438;-77
2021/06/30 07:54:38;;;;;;;5.57;1.30;;;;;;;30.07;39.05;99056.50;4525145;31;82541;-77
2021/06/30 07:57:20;;;;;;;7.45;1.60;;;;;;;29.71;39.56;99054.06;4525158;31;81439;-77
2021/06/30 08:00:04;;;;;;;5.82;1.58;;;;;;;30.07;39.10;99056.50;4525199;31;77339;-80
2021/06/30 08:02:50;;;;;;;6.18;1.50;;;;;;;29.69;39.64;99056.25;4522233;31;87020;-79
2021/06/30 08:05:33;;;;;;;4.50;1.33;;;;;;;30.07;39.06;99045.50;4525076;31;81382;-80
2021/06/30 08:08:13;;;;;;;3.72;1.52;;;;;;;30.09;39.08;99054.31;4494348;31;1079627;-79
2021/06/30 08:10:56;;;;;;;5.80;1.60;;;;;;;29.73;39.54;99051.03;4525324;31;79047;-81
2021/06/30 08:13:36;;;;;;;5.20;2.03;;;;;;;29.57;39.92;99053.06;4525186;31;82214;-79
2021/06/30 08:16:21;;;;;;;5.80;1.35;;;;;;;30.08;39.15;99066.44;4525112;31;79016;-78
2021/06/30 08:19:03;;;;;;;7.00;1.77;;;;;;;30.09;39.17;99059.81;4524173;31;79370;-78
2021/06/30 08:21:43;;;;;;;4.07;1.52;;;;;;;30.11;39.11;99074.09;4525522;31;82472;-77
2021/06/30 08:24:24;;;;;;;7.78;1.40;;;;;;;30.10;39.12;99069.69;4525106;31;82698;-77
2021/06/30 08:27:05;;;;;;;6.75;1.55;;;;;;;30.11;39.16;99065.81;4525568;31;73903;-79
2021/06/30 08:29:48;;;;;;;7.45;1.67;;;;;;;30.11;39.20;99068.56;4524433;31;78722;-79
2021/06/30 08:32:30;;;;;;;3.37;1.42;;;;;;;29.76;39.59;99068.91;4525041;31;86163;-78
2021/06/30 08:35:11;;;;;;;5.45;1.52;;;;;;;29.58;40.04;99062.97;4518939;31;80364;-79
2021/06/30 08:37:56;;;;;;;6.47;1.80;;;;;;;30.10;39.22;99079.88;4502602;31;780890;-79
2021/06/30 08:40:39;;;;;;;4.35;1.73;;;;;;;30.10;39.17;99074.38;4512404;31;83426;-80
2021/06/30 08:43:22;;;;;;;4.53;1.20;;;;;;;30.10;39.16;99075.19;4523606;31;125979;-78
2021/06/30 08:46:02;;;;;;;4.20;1.23;;;;;;;29.74;39.60;99067.22;4524700;31;82603;-80
2021/06/30 08:48:45;;;;;;;3.90;1.40;;;;;;;30.08;39.32;99080.19;4525045;31;79144;-78
2021/06/30 08:51:27;;;;;;;5.75;1.50;;;;;;;30.09;39.23;99076.31;4524920;31;93131;-77
2021/06/30 08:54:11;;;;;;;3.65;1.30;;;;;;;30.09;39.23;99073.81;4525140;31;80606;-76
2021/06/30 08:56:54;;;;;;;6.82;1.50;;;;;;;30.10;39.24;99077.13;4524609;31;77057;-79
2021/06/30 08:59:36;;;;;;;4.00;1.37;;;;;;;30.11;39.23;99078.75;4524521;31;104687;-79
2021/06/30 09:02:18;;;;;;;3.65;1.30;;;;;;;30.11;39.25;99065.81;4525170;31;78886;-78
2021/06/30 09:07:58;;;;;;;4.90;1.52;;;;;;;30.11;39.30;99079.59;4524974;31;91678;-80
2021/06/30 09:10:39;;;;;;;3.55;1.25;;;;;;;30.10;39.23;99080.69;4526464;31;30603;-79
2021/06/30 09:13:23;;;;;;;2.87;1.05;;;;;;;30.11;39.32;99073.25;4526695;31;28214;-79
2021/06/30 09:16:06;;;;;;;2.72;1.10;;;;;;;30.11;39.27;99068.56;4524332;31;86339;-80
2021/06/30 09:18:48;;;;;;;5.53;1.40;;;;;;;30.12;39.30;99070.22;4493915;31;1087743;-79
2021/06/30 09:21:31;;;;;;;5.82;1.45;;;;;;;29.76;39.72;99068.91;4525385;31;77747;-79
2021/06/30 09:24:18;;;;;;;3.50;1.40;;;;;;;30.10;39.32;99080.69;4524815;31;84396;-79
2021/06/30 09:27:00;;;;;;;2.72;1.20;;;;;;;30.11;39.33;99081.53;4488584;31;773518;-78
2021/06/30 09:29:42;;;;;;;3.35;1.33;;;;;;;30.11;39.33;99068.56;4519816;31;83292;-78
2021/06/30 09:32:22;;;;;;;4.53;1.23;;;;;;;30.13;39.33;99074.66;4516540;31;34308;-78
2021/06/30 09:35:45;;;;;;;2.83;1.08;;;;;;;29.77;39.75;99070.53;4523836;31;79930;-78
2021/06/30 09:38:32;;;;;;;3.37;1.25;;;;;;;29.64;40.11;99078.31;4522266;31;79740;-78
2021/06/30 09:41:26;;;;;;;3.35;1.10;;;;;;;30.12;39.38;99088.66;4525116;31;75933;-78
2021/06/30 09:44:11;;;;;;;3.62;1.15;;;;;;;30.12;39.26;99094.97;4523650;31;128064;-78
2021/06/30 09:46:55;;;;;;;4.80;1.45;;;;;;;29.66;40.48;99103.59;4523243;31;82056;-74
2021/06/30 09:49:38;;;;;;;3.28;1.27;;;;;;;30.04;39.56;99094.81;4524975;31;79956;-79
2021/06/30 09:52:21;;;;;;;2.10;1.10;;;;;;;30.14;39.35;99097.50;4525230;31;76933;-78
2021/06/30 09:55:04;;;;;;;4.53;1.20;;;;;;;29.78;39.82;99102.41;4524408;31;78460;-72
2021/06/30 09:57:44;;;;;;;4.70;1.12;;;;;;;30.14;39.25;99069.97;4515377;31;36206;-65
2021/06/30 10:00:28;;;;;;;13.00;1.30;;;;;;;30.14;39.13;99056.22;4524557;31;92793;-77
2021/06/30 10:03:11;;;;;;;10.50;1.95;;;;;;;30.15;39.19;99053.16;4524935;31;81492;-73
2021/06/30 10:05:54;;;;;;;10.68;1.52;;;;;;;30.15;39.19;99058.66;4520967;31;81659;-78
2021/06/30 10:08:39;;;;;;;9.32;1.40;;;;;;;29.80;39.62;99061.69;4523941;31;80598;-79
2021/06/30 10:11:25;;;;;;;11.00;1.73;;;;;;;30.15;39.19;99054.53;4524035;31;80465;-77
2021/06/30 10:14:04;;;;;;;11.00;1.73;;;;;;;29.80;39.67;99051.53;4525543;31;73911;-73
2021/06/30 10:16:47;;;;;;;13.62;1.75;;;;;;;29.66;40.08;99051.38;4525232;31;78260;-78
2021/06/30 10:19:28;;;;;;;15.43;2.22;;;;;;;30.14;39.25;99046.03;4524936;31;79270;-79
2021/06/30 10:22:08;;;;;;;16.17;2.05;;;;;;;30.15;39.25;99036.66;4507412;31;79027;-78
2021/06/30 10:24:49;;;;;;;10.40;1.92;;;;;;;30.16;39.32;99046.56;4522166;31;88538;-78
2021/06/30 10:27:33;;;;;;;8.68;1.60;;;;;;;30.17;39.27;99044.62;4522802;31;89470;-75
2021/06/30 10:30:15;;;;;;;12.82;2.15;;;;;;;30.16;39.37;99054.00;4520429;31;78671;-76
2021/06/30 10:32:57;;;;;;;11.25;1.73;;;;;;;30.17;39.40;99052.88;4515157;31;90823;-77
2021/06/30 10:35:45;;;;;;;13.90;1.95;;;;;;;29.80;39.84;99054.28;4524291;31;80963;-78
2021/06/30 10:38:48;;;;;;;9.25;1.67;;;;;;;30.20;39.36;99046.81;4495192;31;779417;-79
2021/06/30 10:41:39;;;;;;;9.93;1.80;;;;;;;30.17;39.36;99050.97;4520592;31;75726;-75
2021/06/30 10:44:20;;;;;;;13.10;2.10;;;;;;;30.16;39.44;99048.47;4505447;31;132540;-74
2021/06/30 10:47:00;;;;;;;5.57;1.27;;;;;;;29.80;39.88;99048.78;4519212;31;81040;-78
2021/06/30 10:49:40;;;;;;;7.80;1.87;;;;;;;30.16;39.44;99040.22;4515673;31;81864;-78
2021/06/30 10:52:24;;;;;;;17.17;1.98;;;;;;;30.16;39.53;99037.47;4514638;31;81885;-73
2021/06/30 10:55:03;;;;;;;6.82;1.40;;;;;;;29.83;39.93;99039.13;4510238;31;32315;-77
2021/06/30 10:57:45;;;;;;;6.93;1.60;;;;;;;30.16;39.70;99042.97;4507351;31;90516;-76
2021/06/30 11:00:32;;;;;;;10.48;1.75;;;;;;;29.81;40.17;99041.34;4524637;31;78679;-77
2021/06/30 11:03:29;;;;;;;4.80;1.60;;;;;;;30.19;39.67;99042.41;4519329;31;76835;-79
2021/06/30 11:06:16;;;;;;;6.80;1.55;;;;;;;29.82;40.24;99042.97;4515472;31;79644;-74
2021/06/30 11:09:08;;;;;;;3.92;1.20;;;;;;;30.17;39.79;99048.22;4503033;31;783213;-79
2021/06/30 11:11:49;;;;;;;9.88;1.80;;;;;;;30.16;39.80;99043.81;4521954;31;76418;-78
2021/06/30 11:14:37;;;;;;;5.07;1.40;;;;;;;30.18;39.79;99043.53;4525096;31;83826;-77
2021/06/30 11:17:45;;;;;;;6.60;1.40;;;;;;;30.22;39.64;99050.91;4525116;31;78762;-79
2021/06/30 11:20:47;;;;;;;6.22;1.10;;;;;;;30.20;39.61;99044.03;4525212;31;80966;-78
2021/06/30 11:23:28;;;;;;;6.12;1.40;;;;;;;30.17;39.73;99044.62;4524993;31;82977;-77
2021/06/30 11:26:34;;;;;;;7.05;1.42;;;;;;;29.81;40.19;99041.34;4525480;31;75382;-78
2021/06/30 11:29:41;;;;;;;6.28;1.58;;;;;;;30.19;39.70;99028.66;4525177;31;79021;-77
2021/06/30 11:32:36;;;;;;;11.82;1.80;;;;;;;30.17;39.85;99044.62;4525058;31;79386;-75
2021/06/30 11:35:24;;;;;;;11.68;2.05;;;;;;;30.15;39.91;99041.34;4502797;31;780452;-77
2021/06/30 11:38:16;;;;;;;6.82;1.52;;;;;;;30.17;39.80;99036.38;4491880;31;792260;-77
2021/06/30 11:41:13;;;;;;;8.43;1.60;;;;;;;30.17;39.79;99044.62;4525367;31;75950;-78
2021/06/30 11:43:56;;;;;;;8.57;1.85;;;;;;;30.16;39.80;99038.28;4518614;31;79462;-63
2021/06/30 11:46:39;;;;;;;15.20;1.75;;;;;;;29.81;40.27;99036.66;4512505;31;200012;-71
2021/06/30 11:49:19;;;;;;;12.18;2.17;;;;;;;30.17;39.97;99033.59;4525026;31;79866;-67
2021/06/30 11:52:00;;;;;;;8.43;1.83;;;;;;;30.18;39.99;99032.53;4517633;31;83035;-67
2021/06/30 11:54:40;;;;;;;8.40;1.70;;;;;;;30.20;39.92;99035.78;4527027;31;32176;-73
2021/06/30 11:57:22;;;;;;;9.88;2.03;;;;;;;30.20;40.04;99025.59;4523859;31;78644;-66
2021/06/30 12:00:11;;;;;;;11.15;2.08;;;;;;;30.23;40.03;99018.72;4523424;31;76140;-64
2021/06/30 12:02:56;;;;;;;8.43;1.70;;;;;;;30.22;40.14;99023.41;4523564;31;83188;-66
2021/06/30 12:05:40;;;;;;;11.32;1.67;;;;;;;29.87;40.59;99023.69;4521784;31;81168;-64
2021/06/30 12:08:21;;;;;;;11.82;1.67;;;;;;;30.23;40.30;99014.03;4524716;31;83835;-62
2021/06/30 12:11:02;;;;;;;11.43;1.90;;;;;;;30.25;40.30;99019.22;4526098;31;32589;-66
2021/06/30 12:14:08;;;;;;;12.70;2.75;;;;;;;29.89;40.78;99013.22;4523865;31;79011;-64
2021/06/30 12:16:52;;;;;;;7.50;1.70;;;;;;;30.26;40.42;99007.78;4523592;31;84006;-64
2021/06/30 12:19:36;;;;;;;9.30;1.80;;;;;;;30.30;40.45;99002.66;4502755;31;787325;-64
2021/06/30 12:22:25;;;;;;;9.52;1.80;;;;;;;30.32;40.50;99005.13;4501791;31;781098;-63
2021/06/30 12:25:18;;;;;;;11.52;2.03;;;;;;;30.35;40.44;98999.03;4524034;31;84814;-64
2021/06/30 12:28:04;;;;;;;11.77;2.12;;;;;;;30.33;40.57;99001.28;4524691;31;91996;-63
2021/06/30 12:30:47;;;;;;;7.70;1.62;;;;;;;29.98;41.02;99003.22;4534421;31;720334;-69
2021/06/30 12:33:29;;;;;;;10.60;1.95;;;;;;;30.34;40.67;99000.16;4520488;31;77414;-77
2021/06/30 12:36:10;;;;;;;14.85;1.77;;;;;;;30.36;40.67;99000.69;4522459;31;79688;-77
2021/06/30 12:38:52;;;;;;;7.32;1.70;;;;;;;29.99;41.12;98993.88;4525212;31;82186;-76
2021/06/30 12:41:33;;;;;;;10.25;1.85;;;;;;;30.35;40.59;99004.53;4525253;31;78814;-76
2021/06/30 12:44:15;;;;;;;7.47;1.40;;;;;;;29.99;41.10;98994.69;4524534;31;79481;-78
2021/06/30 12:47:10;;;;;;;8.73;1.62;;;;;;;30.40;40.48;98993.47;4519038;31;200721;-74
2021/06/30 12:49:57;;;;;;;5.90;1.65;;;;;;;30.04;40.98;99001.28;4503392;31;79677;-78
2021/06/30 12:52:36;;;;;;;8.73;1.98;;;;;;;30.36;40.47;98992.44;4510252;31;93461;-72
2021/06/30 12:55:17;;;;;;;9.90;1.80;;;;;;;30.01;40.93;98991.66;4520517;31;73138;-75